Campanya meteocatpedra

Dades EMA Viladecans

?
?
Resum diari 22:30 TU
Dades diàries de l'estació meteorològica
Temperatura mitjana 22.8 °C
Temperatura màxima 29.1 °C 14:32 TU
Temperatura mínima 15.0 °C 1:50 TU
Humitat relativa mitjana 58%
Precipitació acumulada 0.0 mm
Ratxa màxima del vent (2 m) 29.5 km/h - 229º 15:42 TU
Irradiació solar global 29.5 MJ/m2

El tram horari està expressat en Temps Universal (TU). Cal sumar una hora en horari d'hivern i dues en horari d'estiu per passar a l'hora oficial.

Viladecans

Metadades estació meteorol´gica
Municipi Viladecans
Comarca Baix Llobregat
Altitud 3 m
Data alta 29.04.1993
Estat actual Operativa
Dades de període
Període
TU
TM
°C
TX
°C
TN
°C
HRM
%
PPT
mm
VVM (2 m)
km/h
DVM (2 m)
graus
VVX (2 m)
km/h
RS
W/m2
00:00 - 00:30 16.4 17.1 16.0 84 0.0 1.1 10 4.7 0
00:30 - 01:00 17.2 17.4 17.1 77 0.0 0.4 33 4.3 0
01:00 - 01:30 16.3 17.5 15.6 82 0.0 0.0 202 1.1 0
01:30 - 02:00 15.3 15.6 15.0 87 0.0 0.7 229 2.9 0
02:00 - 02:30 15.6 15.8 15.2 85 0.0 0.4 24 2.5 0
02:30 - 03:00 15.7 16.0 15.4 83 0.0 0.4 20 2.9 0
03:00 - 03:30 16.3 16.4 16.1 78 0.0 0.4 11 3.6 0
03:30 - 04:00 15.9 16.5 15.3 80 0.0 0.0 27 2.2 0
04:00 - 04:30 16.3 16.7 15.9 78 0.0 0.4 18 3.6 0
04:30 - 05:00 17.2 17.6 16.7 74 0.0 4.3 0 10.4 19
05:00 - 05:30 18.1 18.7 17.6 71 0.0 4.3 2 9.7 77
05:30 - 06:00 19.5 20.4 18.7 66 0.0 4.3 343 15.8 164
06:00 - 06:30 21.3 22.1 20.4 61 0.0 1.4 304 4.0 252
06:30 - 07:00 22.3 22.8 22.2 58 0.0 3.2 247 8.6 350
07:00 - 07:30 23.1 23.7 22.6 57 0.0 3.2 220 8.6 448
07:30 - 08:00 24.5 25.7 23.2 55 0.0 2.2 197 8.6 539
08:00 - 08:30 26.3 26.8 25.5 50 0.0 1.1 195 5.0 625
08:30 - 09:00 27.2 27.8 26.3 49 0.0 1.8 182 9.0 705
09:00 - 09:30 27.7 28.0 27.1 46 0.0 2.5 174 9.4 777
09:30 - 10:00 28.0 28.3 27.7 44 0.0 4.0 196 12.2 840
10:00 - 10:30 27.3 28.1 26.3 47 0.0 6.1 211 20.2 891
10:30 - 11:00 27.9 28.3 27.3 47 0.0 5.4 214 15.1 925
11:00 - 11:30 27.9 28.7 27.1 48 0.0 6.5 211 18.7 947
11:30 - 12:00 27.6 28.3 27.1 50 0.0 6.8 208 21.6 957
12:00 - 12:30 27.3 27.8 26.5 49 0.0 9.7 218 23.0 956
12:30 - 13:00 27.4 27.6 27.1 50 0.0 9.4 218 24.5 938
13:00 - 13:30 27.1 27.9 26.8 48 0.0 12.6 223 25.6 911
13:30 - 14:00 27.9 28.3 27.3 47 0.0 7.2 213 20.9 863
14:00 - 14:30 28.5 28.9 28.0 42 0.0 6.1 212 17.6 808
14:30 - 15:00 28.3 29.1 27.3 43 0.0 6.8 210 19.4 742
15:00 - 15:30 27.2 27.6 26.7 46 0.0 8.6 216 25.6 663
15:30 - 16:00 27.3 27.7 26.8 41 0.0 9.7 217 29.5 574
16:00 - 16:30 26.6 27.0 26.4 44 0.0 10.1 215 25.9 478
16:30 - 17:00 26.5 26.8 26.1 40 0.0 10.8 219 24.8 381
17:00 - 17:30 25.9 26.2 25.5 41 0.0 8.6 216 21.6 281
17:30 - 18:00 25.1 25.4 24.6 43 0.0 7.6 216 19.4 185
18:00 - 18:30 24.1 24.6 23.4 46 0.0 6.1 213 19.8 95
18:30 - 19:00 22.9 23.4 22.4 49 0.0 5.8 214 16.6 31
19:00 - 19:30 21.9 22.3 21.4 53 0.0 2.9 204 15.1 2
19:30 - 20:00 21.0 21.3 20.8 56 0.0 2.2 212 6.5 0
20:00 - 20:30 20.6 20.8 20.2 57 0.0 3.2 226 6.5 0
20:30 - 21:00 20.1 20.2 19.7 59 0.0 0.7 206 4.0 0
21:00 - 21:30 19.7 19.9 19.6 64 0.0 0.4 218 2.5 0
21:30 - 22:00 19.1 19.9 18.5 67 0.0 0.4 154 3.2 0
22:00 - 22:30 18.5 18.5 18.3 71 0.0 0.4 226 2.9 0
22:30 - 23:00 (s/d) (s/d) (s/d) (s/d) (s/d) (s/d) (s/d) (s/d) (s/d)
23:00 - 23:30 (s/d) (s/d) (s/d) (s/d) (s/d) (s/d) (s/d) (s/d) (s/d)

Les dades en taronja només han passat un control de qualitat automàtic. Resta pendent la seva validació definitiva.